Aredale, IA

1:27 PM CDT on October 21, 2014 (GMT -0500)
Beeds Addition | Change Station
CLOSE
Current Station
Personal Weather Station
Location: Hampton, IA
Elevation: 1145 ft
Nearby Weather Stations

Elev 1145 ft 42.74 °N, 93.20 °W | Updated 4 seconds ago

Clear
Clear
60.8 °F
Feels Like 60.8 °F
N
13.0
Wind Variable Wind from SE
Gusts 13.0 mph

Today
High -- | Low -- °F
--% Chance of Precip.
Yesterday
High -- | Low -- °F
Precip. -- in
7:32 AM 6:19 PM
Waning Crescent, 5% visible
Pressure 30.18 in
Visibility 10.0 miles
Clouds Clear
Dew Point 46 °F
Humidity 59%
Rainfall 0.00 in
Snow Depth Not available.
UV 4 out of 12
Pollen 1.20 out of 12
Air Quality Not available.
Flu Activity Sporadic
METAR KCCY 211815Z AUTO 10009KT 10SM CLR 14/05 A3018 RMK AO2

More Conditions Fewer Conditions

Pressure 30.18 in
Visibility 10.0 miles
Clouds Clear
Dew Point 46 °F
Humidity 59%
Rainfall 0.00 in
Snow Depth Not available.
UV 4 out of 12
Pollen 1.20 out of 12
Air Quality Not available.
Flu Activity Sporadic
METAR KCCY 211815Z AUTO 10009KT 10SM CLR 14/05 A3018 RMK AO2

More Conditions Fewer Conditions

10-Day Weather Forecast

Almanac

Astronomy

Oct. 21, 2014 Rise Set
Actual Time 7:32 AM CDT 6:19 PM CDT
Civil Twilight 7:03 AM CDT 6:48 PM CDT
Nautical Twilight 6:30 AM CDT 7:21 PM CDT
Astronomical Twilight 5:58 AM CDT 7:54 PM CDT
Moon 5:14 AM CDT 5:16 PM CDT
Length of Visible Light 11h 44m
Length of Day
10h 47m
Tomorrow will be 2m 44s shorter.
Waning Crescent, 5% of the Moon is Illuminated
Today
Waning Crescent
Oct 23
New
Oct 30
First Quarter
Nov 6
Full
Nov 14
Last Quarter

Today's Extremes

State Highs State Lows

Community

WunderPhotos

Upload Photos

1,763,738 photos uploaded!

Nearby

Snow Depth

Station Depth Elevation
No new snow has been reported.

Earthquake Activity

City Distance Mag. Time & Date
No recent earthquake activity has been reported nearby.
Minimum magnitude displayed is 2.5.

Coastal Water Temperatures

Place Temperature
No Stations Reporting

Nearby Weather Stations